sensor_id;sensor_type;location;lat;lon;timestamp;pressure;altitude;pressure_sealevel;temperature;humidity
59104;BME280;51449;51.676;5.812;2023-05-01T00:00:40;101695.44;;;12.92;57.34
59104;BME280;51449;51.676;5.812;2023-05-01T00:03:02;101688.78;;;12.93;57.70
59104;BME280;51449;51.676;5.812;2023-05-01T00:05:24;101690.75;;;12.93;57.54
59104;BME280;51449;51.676;5.812;2023-05-01T00:07:45;101687.13;;;12.92;57.75
59104;BME280;51449;51.676;5.812;2023-05-01T00:10:07;101679.31;;;12.94;57.69
59104;BME280;51449;51.676;5.812;2023-05-01T00:12:29;101676.56;;;12.94;57.87
59104;BME280;51449;51.676;5.812;2023-05-01T00:14:53;101671.03;;;12.94;57.77
59104;BME280;51449;51.676;5.812;2023-05-01T00:17:14;101665.84;;;12.93;58.11
59104;BME280;51449;51.676;5.812;2023-05-01T00:19:36;101666.66;;;12.93;58.11
59104;BME280;51449;51.676;5.812;2023-05-01T00:21:58;101663.09;;;12.93;57.72
59104;BME280;51449;51.676;5.812;2023-05-01T00:24:20;101661.44;;;12.92;57.99
59104;BME280;51449;51.676;5.812;2023-05-01T00:26:42;101654.78;;;12.93;57.84
59104;BME280;51449;51.676;5.812;2023-05-01T00:29:04;101652.81;;;12.93;57.77
59104;BME280;51449;51.676;5.812;2023-05-01T00:31:25;101653.13;;;12.92;58.07
59104;BME280;51449;51.676;5.812;2023-05-01T00:33:47;101649.88;;;12.90;58.04
59104;BME280;51449;51.676;5.812;2023-05-01T00:36:09;101651.84;;;12.89;58.21
59104;BME280;51449;51.676;5.812;2023-05-01T00:38:31;101644.34;;;12.90;58.27
59104;BME280;51449;51.676;5.812;2023-05-01T00:40:53;101643.22;;;12.91;57.74
59104;BME280;51449;51.676;5.812;2023-05-01T00:43:15;101643.72;;;12.93;57.97
59104;BME280;51449;51.676;5.812;2023-05-01T00:45:37;101640.28;;;12.96;57.74
59104;BME280;51449;51.676;5.812;2023-05-01T00:47:59;101639.97;;;12.97;57.62
59104;BME280;51449;51.676;5.812;2023-05-01T00:50:21;101634.56;;;13.01;57.38
59104;BME280;51449;51.676;5.812;2023-05-01T00:52:43;101627.56;;;13.03;57.50
59104;BME280;51449;51.676;5.812;2023-05-01T00:55:07;101622.84;;;13.04;57.54
59104;BME280;51449;51.676;5.812;2023-05-01T00:57:28;101627.72;;;13.07;57.26
59104;BME280;51449;51.676;5.812;2023-05-01T00:59:50;101627.06;;;13.10;57.26
59104;BME280;51449;51.676;5.812;2023-05-01T01:02:13;101629.03;;;13.10;57.10
59104;BME280;51449;51.676;5.812;2023-05-01T01:04:35;101616.00;;;13.10;57.29
59104;BME280;51449;51.676;5.812;2023-05-01T01:07:07;101612.75;;;13.08;57.20
59104;BME280;51449;51.676;5.812;2023-05-01T01:12:33;101594.53;;;13.07;56.97
59104;BME280;51449;51.676;5.812;2023-05-01T01:15:19;101598.09;;;13.07;56.97
59104;BME280;51449;51.676;5.812;2023-05-01T01:17:58;101595.03;;;13.00;57.00
59104;BME280;51449;51.676;5.812;2023-05-01T01:20:40;101598.78;;;12.96;56.84
59104;BME280;51449;51.676;5.812;2023-05-01T01:23:33;101601.41;;;12.92;56.84
59104;BME280;51449;51.676;5.812;2023-05-01T01:29:33;101583.56;;;12.81;57.17
59104;BME280;51449;51.676;5.812;2023-05-01T01:32:12;101587.63;;;12.75;57.57
59104;BME280;51449;51.676;5.812;2023-05-01T01:35:02;101580.97;;;12.67;57.65
59104;BME280;51449;51.676;5.812;2023-05-01T01:37:48;101578.09;;;12.63;57.80
59104;BME280;51449;51.676;5.812;2023-05-01T01:40:19;101574.34;;;12.59;57.75
59104;BME280;51449;51.676;5.812;2023-05-01T01:42:54;101579.06;;;12.59;58.02
59104;BME280;51449;51.676;5.812;2023-05-01T01:45:40;101568.66;;;12.56;57.93
59104;BME280;51449;51.676;5.812;2023-05-01T01:48:05;101562.66;;;12.54;57.93
59104;BME280;51449;51.676;5.812;2023-05-01T01:50:32;101562.31;;;12.55;57.56
59104;BME280;51449;51.676;5.812;2023-05-01T01:52:59;101556.63;;;12.52;58.17
59104;BME280;51449;51.676;5.812;2023-05-01T01:55:25;101550.31;;;12.51;57.94
59104;BME280;51449;51.676;5.812;2023-05-01T01:57:51;101553.06;;;12.51;57.80
59104;BME280;51449;51.676;5.812;2023-05-01T02:00:14;101555.00;;;12.51;58.04
59104;BME280;51449;51.676;5.812;2023-05-01T02:02:40;101552.22;;;12.51;58.42
59104;BME280;51449;51.676;5.812;2023-05-01T02:05:03;101554.19;;;12.50;57.84
59104;BME280;51449;51.676;5.812;2023-05-01T02:07:28;101551.09;;;12.52;57.94
59104;BME280;51449;51.676;5.812;2023-05-01T02:09:51;101547.34;;;12.56;57.72
59104;BME280;51449;51.676;5.812;2023-05-01T02:12:17;101544.25;;;12.58;58.04
59104;BME280;51449;51.676;5.812;2023-05-01T02:14:41;101537.59;;;12.59;57.82
59104;BME280;51449;51.676;5.812;2023-05-01T02:17:04;101538.09;;;12.61;57.80
59104;BME280;51449;51.676;5.812;2023-05-01T02:19:27;101524.25;;;12.61;57.87
59104;BME280;51449;51.676;5.812;2023-05-01T02:21:51;101524.72;;;12.63;57.92
59104;BME280;51449;51.676;5.812;2023-05-01T02:24:16;101517.25;;;12.63;58.08
59104;BME280;51449;51.676;5.812;2023-05-01T02:26:48;101525.88;;;12.62;57.46
59104;BME280;51449;51.676;5.812;2023-05-01T02:29:15;101522.13;;;12.58;57.92
59104;BME280;51449;51.676;5.812;2023-05-01T02:31:37;101518.75;;;12.52;58.01
59104;BME280;51449;51.676;5.812;2023-05-01T02:33:59;101524.13;;;12.49;57.70
59104;BME280;51449;51.676;5.812;2023-05-01T02:36:21;101522.50;;;12.48;57.77
59104;BME280;51449;51.676;5.812;2023-05-01T02:38:43;101515.34;;;12.47;57.91
59104;BME280;51449;51.676;5.812;2023-05-01T02:41:07;101519.59;;;12.44;57.85
59104;BME280;51449;51.676;5.812;2023-05-01T02:43:32;101511.94;;;12.41;57.78
59104;BME280;51449;51.676;5.812;2023-05-01T02:45:57;101521.69;;;12.38;57.84
59104;BME280;51449;51.676;5.812;2023-05-01T02:48:26;101512.97;;;12.36;57.97
59104;BME280;51449;51.676;5.812;2023-05-01T02:50:49;101508.56;;;12.35;58.25
59104;BME280;51449;51.676;5.812;2023-05-01T02:53:13;101504.97;;;12.35;58.25
59104;BME280;51449;51.676;5.812;2023-05-01T02:55:44;101500.13;;;12.32;58.40
59104;BME280;51449;51.676;5.812;2023-05-01T02:58:06;101495.56;;;12.27;58.44
59104;BME280;51449;51.676;5.812;2023-05-01T03:00:28;101500.78;;;12.20;58.88
59104;BME280;51449;51.676;5.812;2023-05-01T03:02:50;101491.03;;;12.14;59.51
59104;BME280;51449;51.676;5.812;2023-05-01T03:05:12;101497.22;;;12.11;59.22
59104;BME280;51449;51.676;5.812;2023-05-01T03:07:34;101486.84;;;12.08;59.32
59104;BME280;51449;51.676;5.812;2023-05-01T03:09:56;101486.84;;;12.08;59.49
59104;BME280;51449;51.676;5.812;2023-05-01T03:12:18;101485.69;;;12.09;59.45
59104;BME280;51449;51.676;5.812;2023-05-01T03:14:39;101485.38;;;12.10;59.60
59104;BME280;51449;51.676;5.812;2023-05-01T03:17:01;101484.56;;;12.10;59.95
59104;BME280;51449;51.676;5.812;2023-05-01T03:19:23;101477.09;;;12.10;60.04
59104;BME280;51449;51.676;5.812;2023-05-01T03:21:45;101480.16;;;12.09;60.15
59104;BME280;51449;51.676;5.812;2023-05-01T03:24:06;101484.56;;;12.10;59.86
59104;BME280;51449;51.676;5.812;2023-05-01T03:26:28;101475.00;;;12.07;60.14
59104;BME280;51449;51.676;5.812;2023-05-01T03:28:50;101472.38;;;12.02;60.52
59104;BME280;51449;51.676;5.812;2023-05-01T03:31:12;101476.16;;;11.97;60.36
59104;BME280;51449;51.676;5.812;2023-05-01T03:33:34;101462.97;;;11.94;60.39
59104;BME280;51449;51.676;5.812;2023-05-01T03:36:04;101459.56;;;11.89;61.26
59104;BME280;51449;51.676;5.812;2023-05-01T03:38:27;101461.31;;;11.85;61.32
59104;BME280;51449;51.676;5.812;2023-05-01T03:41:04;101454.03;;;11.80;61.13
59104;BME280;51449;51.676;5.812;2023-05-01T03:43:55;101446.88;;;11.79;60.93
59104;BME280;51449;51.676;5.812;2023-05-01T03:46:25;101449.16;;;11.77;61.46
59104;BME280;51449;51.676;5.812;2023-05-01T03:48:47;101438.13;;;11.77;61.17
59104;BME280;51449;51.676;5.812;2023-05-01T03:51:09;101444.44;;;11.77;61.15
59104;BME280;51449;51.676;5.812;2023-05-01T03:53:31;101436.16;;;11.77;60.67
59104;BME280;51449;51.676;5.812;2023-05-01T03:55:56;101440.88;;;11.77;60.92
59104;BME280;51449;51.676;5.812;2023-05-01T03:58:18;101440.88;;;11.77;61.07
59104;BME280;51449;51.676;5.812;2023-05-01T04:00:40;101445.28;;;11.78;60.82
59104;BME280;51449;51.676;5.812;2023-05-01T04:03:03;101444.44;;;11.77;60.75
59104;BME280;51449;51.676;5.812;2023-05-01T04:05:28;101440.88;;;11.77;60.52
59104;BME280;51449;51.676;5.812;2023-05-01T04:07:55;101442.16;;;11.79;60.29
59104;BME280;51449;51.676;5.812;2023-05-01T04:10:17;101437.44;;;11.80;60.59
59104;BME280;51449;51.676;5.812;2023-05-01T04:12:47;101430.31;;;11.79;60.50
59104;BME280;51449;51.676;5.812;2023-05-01T04:15:09;101436.50;;;11.76;60.54
59104;BME280;51449;51.676;5.812;2023-05-01T04:17:34;101436.31;;;11.72;60.61
59104;BME280;51449;51.676;5.812;2023-05-01T04:19:56;101433.91;;;11.71;60.44
59104;BME280;51449;51.676;5.812;2023-05-01T04:22:19;101435.84;;;11.70;60.77
59104;BME280;51449;51.676;5.812;2023-05-01T04:24:41;101427.56;;;11.70;60.52
59104;BME280;51449;51.676;5.812;2023-05-01T04:27:03;101434.72;;;11.71;60.44
59104;BME280;51449;51.676;5.812;2023-05-01T04:29:26;101432.94;;;11.75;60.51
59104;BME280;51449;51.676;5.812;2023-05-01T04:31:47;101431.47;;;11.78;60.64
59104;BME280;51449;51.676;5.812;2023-05-01T04:34:09;101420.88;;;11.80;60.72
59104;BME280;51449;51.676;5.812;2023-05-01T04:36:31;101425.78;;;11.83;60.45
59104;BME280;51449;51.676;5.812;2023-05-01T04:38:53;101422.06;;;11.88;60.50
59104;BME280;51449;51.676;5.812;2023-05-01T04:41:15;101418.16;;;11.89;60.44
59104;BME280;51449;51.676;5.812;2023-05-01T04:43:38;101412.78;;;11.92;60.89
59104;BME280;51449;51.676;5.812;2023-05-01T04:46:04;101415.38;;;11.97;60.88
59104;BME280;51449;51.676;5.812;2023-05-01T04:48:26;101415.22;;;12.03;60.44
59104;BME280;51449;51.676;5.812;2023-05-01T04:50:48;101413.38;;;12.07;60.34
59104;BME280;51449;51.676;5.812;2023-05-01T04:53:10;101422.16;;;12.09;60.59
59104;BME280;51449;51.676;5.812;2023-05-01T04:55:34;101411.91;;;12.09;60.52
59104;BME280;51449;51.676;5.812;2023-05-01T04:58:00;101417.94;;;12.11;60.57
59104;BME280;51449;51.676;5.812;2023-05-01T05:00:25;101420.50;;;12.16;60.42
59104;BME280;51449;51.676;5.812;2023-05-01T05:02:50;101417.09;;;12.19;60.20
59104;BME280;51449;51.676;5.812;2023-05-01T05:05:12;101423.56;;;12.24;59.89
59104;BME280;51449;51.676;5.812;2023-05-01T05:07:34;101414.97;;;12.25;60.09
59104;BME280;51449;51.676;5.812;2023-05-01T05:10:14;101415.44;;;12.27;60.30
59104;BME280;51449;51.676;5.812;2023-05-01T05:12:42;101422.09;;;12.26;60.08
59104;BME280;51449;51.676;5.812;2023-05-01T05:15:04;101414.66;;;12.27;60.13
59104;BME280;51449;51.676;5.812;2023-05-01T05:17:27;101415.09;;;12.29;60.07
59104;BME280;51449;51.676;5.812;2023-05-01T05:19:49;101417.06;;;12.28;59.94
59104;BME280;51449;51.676;5.812;2023-05-01T05:22:10;101414.28;;;12.28;60.10
59104;BME280;51449;51.676;5.812;2023-05-01T05:24:53;101419.81;;;12.28;60.27
59104;BME280;51449;51.676;5.812;2023-05-01T05:27:17;101422.59;;;12.28;60.15
59104;BME280;51449;51.676;5.812;2023-05-01T05:29:39;101425.50;;;12.32;60.51
59104;BME280;51449;51.676;5.812;2023-05-01T05:32:01;101429.56;;;12.34;60.10
59104;BME280;51449;51.676;5.812;2023-05-01T05:34:23;101424.97;;;12.38;60.42
59104;BME280;51449;51.676;5.812;2023-05-01T05:36:45;101440.91;;;12.41;60.64
59104;BME280;51449;51.676;5.812;2023-05-01T05:39:08;101441.38;;;12.43;60.55
59104;BME280;51449;51.676;5.812;2023-05-01T05:41:30;101445.28;;;12.42;60.41
59104;BME280;51449;51.676;5.812;2023-05-01T05:43:54;101437.00;;;12.42;60.74
59104;BME280;51449;51.676;5.812;2023-05-01T05:46:15;101428.88;;;12.46;60.48
59104;BME280;51449;51.676;5.812;2023-05-01T05:48:38;101439.59;;;12.48;60.37
59104;BME280;51449;51.676;5.812;2023-05-01T05:50:59;101437.16;;;12.46;60.66
59104;BME280;51449;51.676;5.812;2023-05-01T05:53:22;101430.16;;;12.49;60.29
59104;BME280;51449;51.676;5.812;2023-05-01T05:55:47;101435.03;;;12.52;60.22
59104;BME280;51449;51.676;5.812;2023-05-01T05:58:09;101433.06;;;12.52;60.80
59104;BME280;51449;51.676;5.812;2023-05-01T06:00:31;101434.84;;;12.57;60.53
59104;BME280;51449;51.676;5.812;2023-05-01T06:02:57;101424.75;;;12.61;60.56
59104;BME280;51449;51.676;5.812;2023-05-01T06:05:22;101423.88;;;12.69;60.81
59104;BME280;51449;51.676;5.812;2023-05-01T06:07:44;101420.59;;;12.76;60.98
59104;BME280;51449;51.676;5.812;2023-05-01T06:10:06;101423.97;;;12.81;60.55
59104;BME280;51449;51.676;5.812;2023-05-01T06:12:31;101429.31;;;12.87;60.74
59104;BME280;51449;51.676;5.812;2023-05-01T06:14:58;101412.88;;;12.90;60.71
59104;BME280;51449;51.676;5.812;2023-05-01T06:17:20;101421.63;;;12.92;60.56
59104;BME280;51449;51.676;5.812;2023-05-01T06:19:42;101418.19;;;12.95;60.61
59104;BME280;51449;51.676;5.812;2023-05-01T06:22:05;101417.19;;;13.00;60.38
59104;BME280;51449;51.676;5.812;2023-05-01T06:24:34;101413.41;;;13.04;60.58
59104;BME280;51449;51.676;5.812;2023-05-01T06:26:57;101407.81;;;13.13;60.41
59104;BME280;51449;51.676;5.812;2023-05-01T06:29:22;101418.88;;;13.13;60.29
59104;BME280;51449;51.676;5.812;2023-05-01T06:31:43;101413.41;;;13.25;60.13
59104;BME280;51449;51.676;5.812;2023-05-01T06:34:06;101412.13;;;13.32;60.05
59104;BME280;51449;51.676;5.812;2023-05-01T06:36:40;101410.06;;;13.41;59.97
59104;BME280;51449;51.676;5.812;2023-05-01T06:39:02;101411.75;;;13.54;59.81
59104;BME280;51449;51.676;5.812;2023-05-01T06:41:25;101404.50;;;13.62;59.49
59104;BME280;51449;51.676;5.812;2023-05-01T06:43:47;101409.97;;;13.70;59.25
59104;BME280;51449;51.676;5.812;2023-05-01T06:46:10;101409.88;;;13.79;59.06
59104;BME280;51449;51.676;5.812;2023-05-01T06:48:33;101409.44;;;13.89;58.56
59104;BME280;51449;51.676;5.812;2023-05-01T06:50:55;101407.28;;;13.95;58.13
59104;BME280;51449;51.676;5.812;2023-05-01T06:53:16;101412.59;;;14.00;57.92
59104;BME280;51449;51.676;5.812;2023-05-01T06:55:38;101402.44;;;14.04;57.67
59104;BME280;51449;51.676;5.812;2023-05-01T06:58:00;101410.88;;;14.08;57.48
59104;BME280;51449;51.676;5.812;2023-05-01T07:00:33;101404.06;;;14.05;57.72
59104;BME280;51449;51.676;5.812;2023-05-01T07:02:54;101403.16;;;14.13;58.22
59104;BME280;51449;51.676;5.812;2023-05-01T07:05:17;101400.06;;;14.27;57.90
59104;BME280;51449;51.676;5.812;2023-05-01T07:07:39;101405.94;;;14.38;57.89
59104;BME280;51449;51.676;5.812;2023-05-01T07:10:10;101407.44;;;14.48;57.92
59104;BME280;51449;51.676;5.812;2023-05-01T07:12:32;101400.19;;;14.55;57.69
59104;BME280;51449;51.676;5.812;2023-05-01T07:14:54;101402.53;;;14.66;57.80
59104;BME280;51449;51.676;5.812;2023-05-01T07:17:17;101400.41;;;14.75;57.52
59104;BME280;51449;51.676;5.812;2023-05-01T07:19:39;101401.47;;;14.83;57.57
59104;BME280;51449;51.676;5.812;2023-05-01T07:22:00;101400.88;;;14.89;57.34
59104;BME280;51449;51.676;5.812;2023-05-01T07:24:23;101397.06;;;14.94;57.17
59104;BME280;51449;51.676;5.812;2023-05-01T07:26:45;101393.69;;;15.01;56.95
59104;BME280;51449;51.676;5.812;2023-05-01T07:29:07;101395.06;;;15.07;57.08
59104;BME280;51449;51.676;5.812;2023-05-01T07:31:29;101391.22;;;15.11;56.25
59104;BME280;51449;51.676;5.812;2023-05-01T07:33:51;101397.38;;;15.17;56.43
59104;BME280;51449;51.676;5.812;2023-05-01T07:36:14;101402.66;;;15.22;56.19
59104;BME280;51449;51.676;5.812;2023-05-01T07:38:38;101404.81;;;15.29;56.29
59104;BME280;51449;51.676;5.812;2023-05-01T07:41:01;101390.34;;;15.35;56.05
59104;BME280;51449;51.676;5.812;2023-05-01T07:43:23;101390.69;;;15.46;56.05
59104;BME280;51449;51.676;5.812;2023-05-01T07:46:00;101385.31;;;15.53;56.13
59104;BME280;51449;51.676;5.812;2023-05-01T07:48:22;101394.53;;;15.57;55.59
59104;BME280;51449;51.676;5.812;2023-05-01T07:50:45;101390.00;;;15.65;55.60
59104;BME280;51449;51.676;5.812;2023-05-01T07:53:06;101398.94;;;15.71;55.58
59104;BME280;51449;51.676;5.812;2023-05-01T07:55:28;101392.84;;;15.81;55.37
59104;BME280;51449;51.676;5.812;2023-05-01T07:57:50;101396.28;;;15.90;55.04
59104;BME280;51449;51.676;5.812;2023-05-01T08:00:12;101399.25;;;15.97;54.85
59104;BME280;51449;51.676;5.812;2023-05-01T08:02:34;101393.06;;;16.04;54.31
59104;BME280;51449;51.676;5.812;2023-05-01T08:04:57;101401.13;;;16.09;54.32
59104;BME280;51449;51.676;5.812;2023-05-01T08:07:19;101398.19;;;16.18;54.01
59104;BME280;51449;51.676;5.812;2023-05-01T08:09:41;101401.50;;;16.23;53.99
59104;BME280;51449;51.676;5.812;2023-05-01T08:12:03;101398.44;;;16.29;53.97
59104;BME280;51449;51.676;5.812;2023-05-01T08:14:24;101399.16;;;16.25;53.69
59104;BME280;51449;51.676;5.812;2023-05-01T08:16:46;101394.69;;;16.37;53.74
59104;BME280;51449;51.676;5.812;2023-05-01T08:19:14;101394.50;;;16.45;53.64
59104;BME280;51449;51.676;5.812;2023-05-01T08:21:36;101384.34;;;16.53;53.43
59104;BME280;51449;51.676;5.812;2023-05-01T08:23:57;101386.41;;;16.56;53.70
59104;BME280;51449;51.676;5.812;2023-05-01T08:26:19;101384.31;;;16.69;53.65
59104;BME280;51449;51.676;5.812;2023-05-01T08:28:43;101385.50;;;16.84;53.73
59104;BME280;51449;51.676;5.812;2023-05-01T08:31:04;101383.31;;;16.93;53.21
59104;BME280;51449;51.676;5.812;2023-05-01T08:33:27;101386.56;;;16.95;53.16
59104;BME280;51449;51.676;5.812;2023-05-01T08:35:48;101382.75;;;17.03;53.10
59104;BME280;51449;51.676;5.812;2023-05-01T08:38:11;101388.47;;;17.10;52.60
59104;BME280;51449;51.676;5.812;2023-05-01T08:40:37;101390.16;;;17.15;52.65
59104;BME280;51449;51.676;5.812;2023-05-01T08:43:01;101386.34;;;17.23;52.58
59104;BME280;51449;51.676;5.812;2023-05-01T08:45:23;101387.25;;;17.27;52.30
59104;BME280;51449;51.676;5.812;2023-05-01T08:47:47;101390.38;;;17.26;51.63
59104;BME280;51449;51.676;5.812;2023-05-01T08:50:10;101389.06;;;17.20;51.43
59104;BME280;51449;51.676;5.812;2023-05-01T08:52:35;101386.72;;;17.22;51.68
59104;BME280;51449;51.676;5.812;2023-05-01T08:55:03;101385.75;;;17.33;51.90
59104;BME280;51449;51.676;5.812;2023-05-01T08:57:26;101386.94;;;17.52;51.45
59104;BME280;51449;51.676;5.812;2023-05-01T08:59:52;101383.38;;;17.74;50.65
59104;BME280;51449;51.676;5.812;2023-05-01T09:02:17;101386.13;;;17.90;50.64
59104;BME280;51449;51.676;5.812;2023-05-01T09:04:43;101378.94;;;18.12;50.80
59104;BME280;51449;51.676;5.812;2023-05-01T09:07:07;101381.78;;;18.39;50.56
59104;BME280;51449;51.676;5.812;2023-05-01T09:09:31;101373.78;;;18.64;50.18
59104;BME280;51449;51.676;5.812;2023-05-01T09:11:56;101374.50;;;18.84;50.15
59104;BME280;51449;51.676;5.812;2023-05-01T09:14:22;101374.03;;;19.09;50.11
59104;BME280;51449;51.676;5.812;2023-05-01T09:16:44;101373.53;;;19.33;49.62
59104;BME280;51449;51.676;5.812;2023-05-01T09:19:06;101377.41;;;19.55;48.93
59104;BME280;51449;51.676;5.812;2023-05-01T09:21:28;101378.00;;;19.72;47.91
59104;BME280;51449;51.676;5.812;2023-05-01T09:23:52;101380.91;;;19.82;47.62
59104;BME280;51449;51.676;5.812;2023-05-01T09:26:14;101382.19;;;19.88;47.61
59104;BME280;51449;51.676;5.812;2023-05-01T09:28:43;101379.41;;;19.92;47.13
59104;BME280;51449;51.676;5.812;2023-05-01T09:31:36;101373.06;;;19.95;46.39
59104;BME280;51449;51.676;5.812;2023-05-01T09:34:00;101373.00;;;19.88;46.41
59104;BME280;51449;51.676;5.812;2023-05-01T09:36:28;101376.56;;;19.85;46.05
59104;BME280;51449;51.676;5.812;2023-05-01T09:38:54;101376.16;;;19.83;45.45
59104;BME280;51449;51.676;5.812;2023-05-01T09:41:15;101375.28;;;19.79;45.70
59104;BME280;51449;51.676;5.812;2023-05-01T09:43:37;101373.72;;;19.81;44.61
59104;BME280;51449;51.676;5.812;2023-05-01T09:48:24;101363.69;;;19.77;44.63
59104;BME280;51449;51.676;5.812;2023-05-01T09:50:46;101367.69;;;19.79;45.11
59104;BME280;51449;51.676;5.812;2023-05-01T09:53:08;101361.75;;;19.84;44.91
59104;BME280;51449;51.676;5.812;2023-05-01T09:55:32;101365.38;;;19.85;45.33
59104;BME280;51449;51.676;5.812;2023-05-01T09:57:54;101371.09;;;19.99;45.10
59104;BME280;51449;51.676;5.812;2023-05-01T10:00:16;101373.50;;;20.01;44.00
59104;BME280;51449;51.676;5.812;2023-05-01T10:02:42;101373.00;;;19.88;44.07
59104;BME280;51449;51.676;5.812;2023-05-01T10:05:09;101370.84;;;19.74;43.54
59104;BME280;51449;51.676;5.812;2023-05-01T10:07:32;101377.28;;;19.78;43.50
59104;BME280;51449;51.676;5.812;2023-05-01T10:09:54;101377.81;;;19.91;44.02
59104;BME280;51449;51.676;5.812;2023-05-01T10:12:27;101376.66;;;19.96;44.28
59104;BME280;51449;51.676;5.812;2023-05-01T10:14:55;101374.81;;;20.10;44.39
59104;BME280;51449;51.676;5.812;2023-05-01T10:17:18;101376.94;;;20.28;43.54
59104;BME280;51449;51.676;5.812;2023-05-01T10:19:40;101372.19;;;20.36;43.27
59104;BME280;51449;51.676;5.812;2023-05-01T10:22:02;101366.25;;;20.41;42.94
59104;BME280;51449;51.676;5.812;2023-05-01T10:24:24;101361.53;;;20.48;43.16
59104;BME280;51449;51.676;5.812;2023-05-01T10:26:47;101364.75;;;20.54;43.11
59104;BME280;51449;51.676;5.812;2023-05-01T10:29:09;101364.09;;;20.68;43.36
59104;BME280;51449;51.676;5.812;2023-05-01T10:31:32;101369.78;;;20.86;42.04
59104;BME280;51449;51.676;5.812;2023-05-01T10:33:56;101358.63;;;20.97;41.91
59104;BME280;51449;51.676;5.812;2023-05-01T10:36:20;101363.47;;;21.00;41.05
59104;BME280;51449;51.676;5.812;2023-05-01T10:38:46;101362.25;;;21.01;41.37
59104;BME280;51449;51.676;5.812;2023-05-01T10:41:09;101361.88;;;21.02;42.00
59104;BME280;51449;51.676;5.812;2023-05-01T10:43:31;101366.34;;;21.21;41.84
59104;BME280;51449;51.676;5.812;2023-05-01T10:51:12;101368.91;;;21.55;40.42
59104;BME280;51449;51.676;5.812;2023-05-01T10:53:39;101361.28;;;21.48;40.90
59104;BME280;51449;51.676;5.812;2023-05-01T10:56:02;101352.88;;;21.45;41.02
59104;BME280;51449;51.676;5.812;2023-05-01T11:03:47;101348.50;;;21.62;40.34
59104;BME280;51449;51.676;5.812;2023-05-01T11:06:09;101339.69;;;21.67;40.64
59104;BME280;51449;51.676;5.812;2023-05-01T11:08:33;101342.50;;;21.77;39.63
59104;BME280;51449;51.676;5.812;2023-05-01T11:10:56;101345.31;;;21.74;40.05
59104;BME280;51449;51.676;5.812;2023-05-01T11:14:11;101338.94;;;21.80;40.34
59104;BME280;51449;51.676;5.812;2023-05-01T11:19:01;101334.09;;;21.77;40.37
59104;BME280;51449;51.676;5.812;2023-05-01T11:21:31;101335.31;;;21.73;40.78
59104;BME280;51449;51.676;5.812;2023-05-01T11:23:54;101338.88;;;21.63;40.05
59104;BME280;51449;51.676;5.812;2023-05-01T11:26:16;101343.25;;;21.46;40.25
59104;BME280;51449;51.676;5.812;2023-05-01T11:28:40;101340.41;;;21.38;40.95
59104;BME280;51449;51.676;5.812;2023-05-01T11:31:02;101348.41;;;21.36;40.77
59104;BME280;51449;51.676;5.812;2023-05-01T11:33:24;101337.19;;;21.29;40.72
59104;BME280;51449;51.676;5.812;2023-05-01T11:35:55;101341.97;;;21.25;41.32
59104;BME280;51449;51.676;5.812;2023-05-01T11:38:18;101337.53;;;21.21;41.12
59104;BME280;51449;51.676;5.812;2023-05-01T11:40:40;101332.31;;;21.12;40.97
59104;BME280;51449;51.676;5.812;2023-05-01T11:43:06;101335.06;;;21.05;41.36
59104;BME280;51449;51.676;5.812;2023-05-01T11:45:29;101335.03;;;20.98;41.63
59104;BME280;51449;51.676;5.812;2023-05-01T11:47:52;101337.00;;;20.93;42.13
59104;BME280;51449;51.676;5.812;2023-05-01T11:50:14;101337.44;;;20.99;42.38
59104;BME280;51449;51.676;5.812;2023-05-01T11:52:47;101333.50;;;21.11;41.61
59104;BME280;51449;51.676;5.812;2023-05-01T11:55:10;101334.31;;;21.19;41.99
59104;BME280;51449;51.676;5.812;2023-05-01T11:57:49;101339.22;;;21.40;41.26
59104;BME280;51449;51.676;5.812;2023-05-01T12:00:26;101341.28;;;21.53;41.40
59104;BME280;51449;51.676;5.812;2023-05-01T12:02:56;101333.28;;;21.66;41.07
59104;BME280;51449;51.676;5.812;2023-05-01T12:05:20;101324.50;;;21.89;40.99
59104;BME280;51449;51.676;5.812;2023-05-01T12:07:43;101329.72;;;22.12;39.90
59104;BME280;51449;51.676;5.812;2023-05-01T12:10:05;101330.56;;;22.27;39.64
59104;BME280;51449;51.676;5.812;2023-05-01T12:12:28;101335.31;;;22.09;39.25
59104;BME280;51449;51.676;5.812;2023-05-01T12:14:50;101338.50;;;21.82;38.97
59104;BME280;51449;51.676;5.812;2023-05-01T12:17:11;101345.28;;;21.49;39.05
59104;BME280;51449;51.676;5.812;2023-05-01T12:19:33;101340.75;;;21.26;39.29
59104;BME280;51449;51.676;5.812;2023-05-01T12:22:07;101342.69;;;21.11;39.65
59104;BME280;51449;51.676;5.812;2023-05-01T12:24:29;101336.59;;;20.91;39.90
59104;BME280;51449;51.676;5.812;2023-05-01T12:26:59;101338.16;;;20.78;40.77
59104;BME280;51449;51.676;5.812;2023-05-01T12:29:21;101344.13;;;20.73;40.99
59104;BME280;51449;51.676;5.812;2023-05-01T12:31:47;101344.81;;;20.63;41.70
59104;BME280;51449;51.676;5.812;2023-05-01T12:34:10;101335.22;;;20.57;42.24
59104;BME280;51449;51.676;5.812;2023-05-01T12:36:34;101338.50;;;20.73;43.00
59104;BME280;51449;51.676;5.812;2023-05-01T12:39:01;101352.28;;;21.00;42.94
59104;BME280;51449;51.676;5.812;2023-05-01T12:43:57;101350.31;;;21.11;41.51
59104;BME280;51449;51.676;5.812;2023-05-01T12:46:19;101349.06;;;20.98;41.60
59104;BME280;51449;51.676;5.812;2023-05-01T12:48:41;101350.19;;;20.89;41.52
59104;BME280;51449;51.676;5.812;2023-05-01T12:51:03;101351.03;;;20.90;41.46
59104;BME280;51449;51.676;5.812;2023-05-01T12:53:27;101357.84;;;20.92;41.44
59104;BME280;51449;51.676;5.812;2023-05-01T12:55:52;101352.66;;;20.98;40.49
59104;BME280;51449;51.676;5.812;2023-05-01T12:58:15;101353.84;;;20.97;40.56
59104;BME280;51449;51.676;5.812;2023-05-01T13:00:44;101353.41;;;20.88;40.27